createdAt,value
2019-01-19T00:04:51.934Z,6.00
2019-01-19T00:10:53.343Z,5.87
2019-01-19T00:16:57.424Z,7.00
2019-01-19T00:22:46.742Z,5.50
2019-01-19T00:28:33.865Z,5.93
2019-01-19T00:34:35.219Z,5.37
2019-01-19T00:40:25.800Z,5.37
2019-01-19T00:46:27.333Z,5.70
2019-01-19T00:52:28.589Z,5.80
2019-01-19T00:58:29.855Z,4.90
2019-01-19T01:04:31.203Z,5.00
2019-01-19T01:10:10.464Z,5.27
2019-01-19T01:16:11.834Z,5.63
2019-01-19T01:22:13.373Z,5.80
2019-01-19T01:27:59.213Z,5.50
2019-01-19T01:34:00.467Z,5.60
2019-01-19T01:39:22.343Z,5.10
2019-01-19T01:45:26.756Z,5.40
2019-01-19T01:51:12.935Z,4.90
2019-01-19T01:56:16.253Z,5.07
2019-01-19T02:02:40.934Z,4.23
2019-01-19T02:08:16.563Z,5.03
2019-01-19T02:14:07.687Z,5.10
2019-01-19T02:20:09.346Z,5.10
2019-01-19T02:25:57.818Z,5.07
2019-01-19T02:32:01.023Z,4.43
2019-01-19T02:38:02.526Z,4.77
2019-01-19T02:43:16.215Z,5.00
2019-01-19T02:54:27.613Z,4.73
2019-01-19T03:00:12.866Z,5.03
2019-01-19T03:05:56.220Z,4.60
2019-01-19T03:11:57.412Z,4.73
2019-01-19T03:17:58.574Z,5.43
2019-01-19T03:23:59.753Z,4.50
2019-01-19T03:29:48.432Z,4.83
2019-01-19T03:35:52.289Z,5.00
2019-01-19T03:41:46.680Z,4.57
2019-01-19T03:47:28.324Z,4.67
2019-01-19T03:53:10.018Z,5.03
2019-01-19T03:59:11.236Z,4.83
2019-01-19T04:04:47.114Z,5.00
2019-01-19T04:10:49.553Z,5.60
2019-01-19T04:16:47.012Z,6.50
2019-01-19T04:22:49.235Z,6.40
2019-01-19T04:27:52.274Z,6.00
2019-01-19T04:33:14.657Z,7.60
2019-01-19T04:38:38.400Z,5.27
2019-01-19T04:44:00.670Z,5.50
2019-01-19T04:49:25.224Z,5.43
2019-01-19T04:54:28.125Z,5.90
2019-01-19T04:59:31.065Z,5.20
2019-01-19T05:04:47.466Z,5.57
2019-01-19T05:10:10.331Z,6.10
2019-01-19T05:15:33.272Z,6.07
2019-01-19T05:20:57.086Z,6.20
2019-01-19T05:26:19.520Z,5.90
2019-01-19T05:31:42.329Z,5.13
2019-01-19T05:37:04.880Z,5.70
2019-01-19T05:42:27.188Z,5.20
2019-01-19T05:47:50.573Z,4.30
2019-01-19T05:53:13.056Z,4.40
2019-01-19T05:58:35.375Z,5.23
2019-01-19T06:03:57.872Z,4.70
2019-01-19T06:09:20.373Z,5.73
2019-01-19T06:14:45.991Z,5.33
2019-01-19T06:20:09.874Z,5.30
2019-01-19T06:25:14.043Z,5.50
2019-01-19T06:35:46.382Z,5.40
2019-01-19T06:41:08.776Z,4.40
2019-01-19T06:46:31.380Z,6.73
2019-01-19T06:51:53.804Z,5.17
2019-01-19T06:57:16.107Z,5.53
2019-01-19T07:02:38.465Z,4.87
2019-01-19T07:07:41.360Z,4.87
2019-01-19T07:12:44.420Z,5.93
2019-01-19T07:17:47.248Z,4.93
2019-01-19T07:22:50.082Z,4.30
2019-01-19T07:28:12.420Z,5.60
2019-01-19T07:33:35.005Z,4.30
2019-01-19T07:38:57.341Z,5.00
2019-01-19T07:44:19.714Z,4.83
2019-01-19T07:49:42.379Z,5.00
2019-01-19T07:55:07.276Z,4.97
2019-01-19T08:00:34.987Z,5.30
2019-01-19T08:05:50.323Z,4.90
2019-01-19T08:11:12.900Z,5.67
2019-01-19T08:16:15.908Z,5.83
2019-01-19T08:21:40.343Z,5.27
2019-01-19T08:27:02.677Z,8.80
2019-01-19T08:38:07.103Z,11.07
2019-01-19T08:43:48.989Z,5.30
2019-01-19T08:49:11.333Z,4.17
2019-01-19T08:54:14.789Z,3.73
2019-01-19T08:59:37.286Z,4.63
2019-01-19T09:04:53.012Z,4.20
2019-01-19T09:10:17.797Z,5.10
2019-01-19T09:15:40.136Z,4.00
2019-01-19T09:21:02.404Z,3.90
2019-01-19T09:26:24.830Z,6.60
2019-01-19T09:31:42.938Z,6.43
2019-01-19T09:37:05.335Z,4.07
2019-01-19T09:42:47.848Z,4.50
2019-01-19T09:48:10.253Z,5.00
2019-01-19T09:53:32.549Z,4.50
2019-01-19T09:58:55.351Z,5.07
2019-01-19T10:04:11.999Z,3.50
2019-01-19T10:09:14.695Z,3.60
2019-01-19T10:14:36.888Z,2.13
2019-01-19T10:19:39.583Z,2.67
2019-01-19T10:25:01.761Z,2.80
2019-01-19T10:30:24.859Z,2.40
2019-01-19T10:35:40.658Z,2.80
2019-01-19T10:41:02.819Z,3.00
2019-01-19T10:46:25.002Z,2.90
2019-01-19T10:51:47.186Z,2.90
2019-01-19T10:56:49.851Z,2.23
2019-01-19T11:02:12.039Z,3.23
2019-01-19T11:07:14.715Z,2.60
2019-01-19T11:12:17.391Z,3.10
2019-01-19T11:17:20.060Z,2.40
2019-01-19T11:22:42.230Z,2.43
2019-01-19T11:28:04.458Z,1.93
2019-01-19T11:33:26.646Z,1.87
2019-01-19T11:38:48.843Z,1.63
2019-01-19T11:44:11.033Z,1.30
2019-01-19T11:49:33.213Z,1.27
2019-01-19T11:54:55.482Z,1.17
2019-01-19T12:00:19.378Z,1.70
2019-01-19T12:05:34.395Z,1.30
2019-01-19T12:10:56.683Z,1.53
2019-01-19T12:16:18.869Z,1.00
2019-01-19T12:21:21.574Z,1.53
2019-01-19T12:26:43.750Z,1.50
2019-01-19T12:32:05.941Z,1.20
2019-01-19T12:37:28.115Z,1.07
2019-01-19T12:42:55.558Z,1.10
2019-01-19T12:48:17.741Z,2.17
2019-01-19T12:53:39.899Z,1.10
2019-01-19T12:59:02.102Z,0.83
2019-01-19T13:04:17.509Z,1.33
2019-01-19T13:10:01.998Z,1.27
2019-01-19T13:16:03.162Z,0.90
2019-01-19T13:22:04.361Z,0.90
2019-01-19T13:27:50.313Z,0.90
2019-01-19T13:33:45.808Z,1.27
2019-01-19T13:39:34.714Z,1.33
2019-01-19T13:45:38.927Z,1.80
2019-01-19T13:51:40.110Z,1.43
2019-01-19T13:57:28.856Z,1.50
2019-01-19T14:03:30.018Z,1.67
2019-01-19T14:09:04.563Z,2.90
2019-01-19T14:15:05.749Z,1.70
2019-01-19T14:21:07.310Z,1.90
2019-01-19T14:27:08.484Z,1.10
2019-01-19T14:32:41.137Z,3.40
2019-01-19T14:38:42.306Z,1.60
2019-01-19T14:44:43.485Z,1.30
2019-01-19T14:50:16.385Z,3.07
2019-01-19T14:56:07.822Z,1.63
2019-01-19T15:01:55.931Z,1.80
2019-01-19T15:07:19.253Z,2.13
2019-01-19T15:13:20.441Z,1.70
2019-01-19T15:19:21.706Z,2.17
2019-01-19T15:25:22.892Z,2.10
2019-01-19T15:31:24.062Z,2.63
2019-01-19T15:37:25.226Z,2.63
2019-01-19T15:43:26.462Z,2.80
2019-01-19T15:49:27.640Z,1.80
2019-01-19T15:55:28.851Z,1.97
2019-01-19T16:01:07.499Z,1.30
2019-01-19T16:07:08.676Z,1.83
2019-01-19T16:13:09.881Z,2.10
2019-01-19T16:18:55.934Z,1.87
2019-01-19T16:24:57.153Z,2.00
2019-01-19T16:30:58.337Z,2.40
2019-01-19T16:36:48.377Z,7.20
2019-01-19T16:42:37.160Z,3.20
2019-01-19T16:48:23.318Z,2.50
2019-01-19T16:54:10.321Z,7.30
2019-01-19T17:00:14.275Z,5.97
2019-01-19T17:05:49.194Z,3.80
2019-01-19T17:11:50.404Z,2.80
2019-01-19T17:17:51.564Z,2.33
2019-01-19T17:29:13.354Z,2.57
2019-01-19T17:35:00.334Z,3.40
2019-01-19T17:41:01.549Z,2.90
2019-01-19T17:47:02.782Z,3.30
2019-01-19T17:53:03.943Z,3.87
2019-01-19T17:59:05.121Z,3.47
2019-01-19T18:04:40.442Z,3.90
2019-01-19T18:10:41.623Z,3.27
2019-01-19T18:16:42.790Z,3.13
2019-01-19T18:22:47.081Z,4.60
2019-01-19T18:28:51.289Z,4.37
2019-01-19T18:34:52.483Z,4.70
2019-01-19T18:40:53.645Z,7.10
2019-01-19T18:46:54.880Z,6.00
2019-01-19T18:52:56.115Z,4.87
2019-01-19T18:58:57.283Z,3.80
2019-01-19T19:04:31.978Z,4.33
2019-01-19T19:10:33.152Z,3.50
2019-01-19T19:16:34.418Z,3.50
2019-01-19T19:22:35.581Z,3.03
2019-01-19T19:28:23.387Z,4.60
2019-01-19T19:34:24.602Z,3.93
2019-01-19T19:40:25.765Z,4.13
2019-01-19T19:46:26.933Z,3.20
2019-01-19T19:52:08.646Z,3.80
2019-01-19T19:57:30.838Z,3.80
2019-01-19T20:02:53.216Z,4.40
2019-01-19T20:07:55.933Z,3.67
2019-01-19T20:13:18.108Z,3.70
2019-01-19T20:18:40.285Z,5.33
2019-01-19T20:24:02.564Z,4.87
2019-01-19T20:29:24.744Z,3.80
2019-01-19T20:34:27.446Z,4.60
2019-01-19T20:39:30.119Z,6.80
2019-01-19T20:44:32.804Z,5.60
2019-01-19T20:49:54.988Z,5.20
2019-01-19T20:54:57.662Z,5.07
2019-01-19T21:00:19.827Z,5.03
2019-01-19T21:05:35.127Z,3.93
2019-01-19T21:10:57.311Z,4.90
2019-01-19T21:16:19.505Z,4.63
2019-01-19T21:21:41.688Z,5.20
2019-01-19T21:27:03.886Z,4.73
2019-01-19T21:32:26.060Z,5.57
2019-01-19T21:37:48.258Z,5.80
2019-01-19T21:43:10.436Z,5.40
2019-01-19T21:48:32.623Z,5.30
2019-01-19T21:53:54.798Z,7.63
2019-01-19T21:59:16.987Z,6.50
2019-01-19T22:04:32.456Z,7.87
2019-01-19T22:09:54.651Z,7.60
2019-01-19T22:15:17.156Z,7.83
2019-01-19T22:20:39.349Z,7.17
2019-01-19T22:26:01.525Z,8.67
2019-01-19T22:31:23.714Z,7.80
2019-01-19T22:36:45.892Z,8.13
2019-01-19T22:42:08.108Z,8.40
2019-01-19T22:47:30.278Z,9.03
2019-01-19T22:52:52.452Z,7.93
2019-01-19T22:58:14.655Z,7.77
2019-01-19T23:03:38.059Z,8.70
2019-01-19T23:08:53.291Z,8.57
2019-01-19T23:19:49.650Z,8.80
2019-01-19T23:25:11.853Z,9.30
2019-01-19T23:30:34.131Z,8.20
2019-01-19T23:35:56.325Z,9.40
2019-01-19T23:41:18.501Z,9.67
2019-01-19T23:46:40.666Z,9.70
2019-01-19T23:52:02.842Z,8.33
2019-01-19T23:57:25.008Z,9.90
